createdAt,value
2018-02-04T03:50:14.438Z,26.57
2018-02-04T06:54:36.853Z,5.47
2018-02-04T09:24:11.419Z,21.03
2018-02-04T09:34:19.677Z,13.60
2018-02-04T09:45:15.911Z,22.73
2018-02-04T09:56:56.949Z,17.07
2018-02-04T09:59:27.288Z,13.17
2018-02-04T10:14:48.499Z,16.93
2018-02-04T10:17:17.640Z,17.73
2018-02-04T10:19:47.555Z,13.10
2018-02-04T10:22:18.771Z,18.30
2018-02-04T10:24:48.707Z,15.47
2018-02-04T10:27:20.497Z,18.30
2018-02-04T10:29:49.669Z,18.53
2018-02-04T10:32:21.884Z,16.43
2018-02-04T10:34:51.129Z,20.50
2018-02-04T10:50:09.080Z,11.63
2018-02-04T10:52:42.446Z,16.10
2018-02-04T10:55:11.595Z,14.40
2018-02-04T10:57:41.800Z,12.87
2018-02-04T11:00:24.356Z,10.80
2018-02-04T11:03:03.422Z,20.20
2018-02-04T11:11:31.351Z,19.03
2018-02-04T11:19:40.485Z,13.87
2018-02-04T11:22:13.653Z,15.57
2018-02-04T11:24:52.457Z,19.43
2018-02-04T11:30:43.698Z,17.97
2018-02-04T11:33:42.651Z,22.80
2018-02-04T11:36:36.373Z,20.37
2018-02-04T11:54:08.053Z,18.33
2018-02-04T11:56:40.037Z,16.20
2018-02-04T11:59:19.124Z,19.70
2018-02-04T12:01:49.127Z,17.10
2018-02-04T12:09:57.972Z,15.57
2018-02-04T12:12:29.129Z,20.50
2018-02-04T12:18:16.860Z,24.73
2018-02-04T12:37:59.280Z,27.60
2018-02-04T12:43:29.362Z,24.97
2018-02-04T12:46:06.963Z,27.60
2018-02-04T12:48:51.573Z,51.83
2018-02-04T12:51:24.070Z,21.97
2018-02-04T12:53:54.527Z,24.00
2018-02-04T13:02:07.497Z,20.27
2018-02-04T13:07:16.882Z,17.97
2018-02-04T13:09:52.851Z,23.57
2018-02-04T13:21:33.200Z,20.80
2018-02-04T13:24:06.520Z,24.27
2018-02-04T13:26:58.728Z,24.20
2018-02-04T13:29:29.840Z,23.50
2018-02-04T13:32:27.592Z,26.77
2018-02-04T13:35:19.241Z,19.80
2018-02-04T13:37:53.330Z,18.93
2018-02-04T13:43:41.734Z,19.50
2018-02-04T13:49:39.878Z,12.17
2018-02-04T13:54:45.031Z,11.73
2018-02-04T13:57:13.134Z,9.63
2018-02-04T13:59:41.234Z,10.97
2018-02-04T14:03:57.080Z,10.20
2018-02-04T14:06:25.223Z,9.15
2018-02-04T14:08:54.113Z,15.40
2018-02-04T14:11:22.287Z,11.17
2018-02-04T14:13:50.567Z,9.63
2018-02-04T14:16:19.440Z,10.40
2018-02-04T14:18:48.321Z,11.07
2018-02-04T14:21:16.468Z,12.07
2018-02-04T14:23:44.644Z,10.50
2018-02-04T14:26:12.750Z,9.87
2018-02-04T14:28:40.875Z,10.30
2018-02-04T14:31:08.947Z,10.40
2018-02-04T14:33:37.060Z,9.83
2018-02-04T14:36:05.144Z,9.30
2018-02-04T14:38:33.249Z,11.50
2018-02-04T14:41:01.340Z,13.00
2018-02-04T14:43:29.469Z,12.57
2018-02-04T14:45:58.348Z,12.33
2018-02-04T14:48:26.616Z,10.70
2018-02-04T14:50:54.924Z,10.90
2018-02-04T14:53:23.806Z,10.47
2018-02-04T14:55:52.673Z,13.00
2018-02-04T14:58:22.513Z,13.87
2018-02-04T15:00:51.391Z,11.90
2018-02-04T15:03:19.508Z,15.40
2018-02-04T15:05:47.611Z,15.53
2018-02-04T15:08:15.708Z,11.77
2018-02-04T15:10:44.584Z,20.13
2018-02-04T15:13:12.703Z,25.07
2018-02-04T15:15:40.807Z,11.70
2018-02-04T15:18:08.927Z,13.60
2018-02-04T15:20:37.789Z,15.03
2018-02-04T15:23:05.864Z,20.63
2018-02-04T15:25:33.995Z,12.93
2018-02-04T15:28:02.141Z,15.20
2018-02-04T15:30:30.388Z,14.03
2018-02-04T15:32:58.476Z,15.87
2018-02-04T15:35:27.385Z,13.90
2018-02-04T15:37:55.475Z,12.40
2018-02-04T15:40:23.579Z,17.93
2018-02-04T15:42:55.244Z,15.90
2018-02-04T15:45:23.349Z,14.00
2018-02-04T15:47:52.361Z,15.13
2018-02-04T15:50:20.442Z,15.10
2018-02-04T15:52:48.836Z,12.57
2018-02-04T15:55:16.921Z,15.20
2018-02-04T15:57:45.030Z,13.27
2018-02-04T16:00:13.122Z,14.90
2018-02-04T16:02:41.220Z,16.40
2018-02-04T16:05:09.299Z,15.13
2018-02-04T16:07:37.379Z,20.43
2018-02-04T16:10:06.445Z,19.33
2018-02-04T16:12:34.532Z,47.60
2018-02-04T16:15:02.657Z,26.63
2018-02-04T16:17:30.743Z,15.40
2018-02-04T16:19:58.852Z,14.80
2018-02-04T16:22:26.938Z,17.37
2018-02-04T16:24:55.050Z,16.57
2018-02-04T16:27:23.142Z,16.30
2018-02-04T16:29:51.240Z,16.53
2018-02-04T16:32:21.440Z,20.10
2018-02-04T16:34:49.526Z,17.37
2018-02-04T16:37:17.648Z,15.30
2018-02-04T16:39:45.744Z,17.30
2018-02-04T16:42:13.851Z,16.53
2018-02-04T16:44:41.946Z,14.40
2018-02-04T16:47:13.920Z,16.80
2018-02-04T16:49:42.047Z,16.97
2018-02-04T16:52:10.172Z,18.43
2018-02-04T16:54:38.265Z,18.80
2018-02-04T16:57:06.380Z,31.30
2018-02-04T16:59:34.495Z,30.60
2018-02-04T17:02:02.579Z,33.17
2018-02-04T17:04:30.691Z,28.50
2018-02-04T17:06:58.800Z,33.53
2018-02-04T17:09:26.900Z,47.10
2018-02-04T17:11:55.777Z,23.27
2018-02-04T17:14:23.889Z,19.70
2018-02-04T17:16:51.991Z,17.93
2018-02-04T17:19:20.086Z,22.30
2018-02-04T17:21:48.179Z,16.30
2018-02-04T17:24:17.046Z,15.50
2018-02-04T17:26:45.127Z,16.70
2018-02-04T17:29:13.236Z,15.03
2018-02-04T17:31:41.328Z,17.10
2018-02-04T17:34:09.425Z,19.13
2018-02-04T17:36:37.533Z,14.33
2018-02-04T17:39:05.646Z,18.80
2018-02-04T17:41:33.737Z,16.73
2018-02-04T17:44:01.867Z,17.87
2018-02-04T17:46:29.988Z,23.13
2018-02-04T17:48:58.096Z,18.53
2018-02-04T17:51:26.957Z,17.33
2018-02-04T17:53:55.079Z,19.47
2018-02-04T17:56:23.220Z,19.60
2018-02-04T17:58:51.359Z,20.20
2018-02-04T18:01:19.477Z,23.20
2018-02-04T18:03:47.550Z,25.80
2018-02-04T18:06:16.423Z,20.37
2018-02-04T18:08:44.695Z,22.67
2018-02-04T18:11:12.813Z,22.73
2018-02-04T18:13:40.903Z,23.87
2018-02-04T18:16:09.030Z,21.30
2018-02-04T18:18:37.899Z,23.30
2018-02-04T18:21:06.019Z,21.83
2018-02-04T18:23:34.143Z,25.87
2018-02-04T18:26:02.244Z,52.00
2018-02-04T18:28:31.092Z,22.73
2018-02-04T18:30:59.233Z,23.77
2018-02-04T18:33:27.328Z,22.73
2018-02-04T18:35:55.428Z,38.40
2018-02-04T18:38:23.532Z,27.40
2018-02-04T18:40:51.640Z,36.27
2018-02-04T18:43:19.761Z,37.87
2018-02-04T18:45:47.848Z,36.77
2018-02-04T18:48:16.721Z,33.40
2018-02-04T18:50:45.608Z,30.70
2018-02-04T18:53:13.750Z,42.50
2018-02-04T18:55:41.847Z,32.37
2018-02-04T18:58:09.972Z,37.90
2018-02-04T19:00:38.095Z,35.13
2018-02-04T19:03:06.198Z,28.53
2018-02-04T19:05:35.055Z,29.93
2018-02-04T19:08:03.168Z,31.33
2018-02-04T19:10:31.300Z,28.80
2018-02-04T19:12:59.406Z,34.53
2018-02-04T19:15:27.541Z,30.10
2018-02-04T19:17:55.666Z,28.67
2018-02-04T19:20:23.800Z,30.00
2018-02-04T19:22:51.932Z,26.63
2018-02-04T19:25:20.035Z,29.37
2018-02-04T19:27:48.148Z,22.90
2018-02-04T19:30:16.258Z,22.40
2018-02-04T19:32:44.360Z,28.60
2018-02-04T19:35:12.491Z,25.33
2018-02-04T19:37:40.693Z,24.93
2018-02-04T19:40:08.946Z,24.20
2018-02-04T19:42:37.813Z,34.30
2018-02-04T19:45:05.922Z,26.80
2018-02-04T19:47:34.159Z,29.10
2018-02-04T19:50:02.260Z,33.80
2018-02-04T19:52:31.339Z,34.37
2018-02-04T19:54:59.447Z,32.63
2018-02-04T19:57:27.705Z,39.73
2018-02-04T19:59:55.845Z,35.07
2018-02-04T20:02:23.944Z,36.33
2018-02-04T20:04:52.071Z,35.07
2018-02-04T20:07:20.353Z,33.30
2018-02-04T20:09:48.664Z,32.43
2018-02-04T20:12:17.867Z,38.93
2018-02-04T20:14:46.019Z,34.53
2018-02-04T20:17:14.140Z,41.93
2018-02-04T20:19:42.252Z,36.63
2018-02-04T20:22:11.257Z,29.80
2018-02-04T20:24:39.424Z,35.13
2018-02-04T20:27:09.353Z,29.53
2018-02-04T20:29:41.097Z,31.50
2018-02-04T20:35:17.455Z,32.97
2018-02-04T20:37:45.708Z,43.63
2018-02-04T20:40:14.042Z,39.50
2018-02-04T20:42:42.440Z,36.97
2018-02-04T20:45:10.639Z,38.00
2018-02-04T20:47:38.776Z,38.27
2018-02-04T20:50:07.026Z,42.70
2018-02-04T20:52:35.904Z,40.13
2018-02-04T20:55:05.144Z,43.03
2018-02-04T20:57:33.423Z,39.40
2018-02-04T21:00:01.584Z,37.10
2018-02-04T21:02:32.532Z,34.97
2018-02-04T21:05:02.949Z,35.60
2018-02-04T21:07:32.574Z,35.67
2018-02-04T21:10:01.364Z,38.30
2018-02-04T21:12:29.839Z,56.50
2018-02-04T21:14:58.724Z,48.40
2018-02-04T21:17:28.858Z,34.40
2018-02-04T21:19:56.999Z,38.53
2018-02-04T21:22:25.924Z,45.27
2018-02-04T21:24:54.018Z,35.97
2018-02-04T21:27:22.333Z,33.10
2018-02-04T21:32:54.036Z,38.90
2018-02-04T21:35:22.724Z,31.20
2018-02-04T21:37:51.005Z,35.70
2018-02-04T21:40:19.517Z,36.37
2018-02-04T21:42:47.838Z,36.50
2018-02-04T21:45:17.769Z,30.70
2018-02-04T21:47:45.981Z,32.27
2018-02-04T21:57:04.286Z,40.47
2018-02-04T21:59:32.522Z,34.63
2018-02-04T22:02:01.785Z,39.63
2018-02-04T22:04:36.734Z,33.47
2018-02-04T22:07:05.156Z,38.20
2018-02-04T22:09:35.231Z,29.83
2018-02-04T22:12:09.218Z,30.37
2018-02-04T22:14:38.734Z,30.27
2018-02-04T22:17:08.475Z,30.53
2018-02-04T22:19:39.275Z,32.10
2018-02-04T22:22:14.174Z,27.20
2018-02-04T22:24:42.694Z,24.60
2018-02-04T22:27:11.909Z,26.57
2018-02-04T22:29:51.349Z,29.90
2018-02-04T22:32:23.597Z,28.87
2018-02-04T22:34:55.216Z,22.53
2018-02-04T22:37:26.465Z,28.57
2018-02-04T22:39:58.859Z,25.97
2018-02-04T22:42:28.897Z,31.00
2018-02-04T22:44:57.784Z,34.30
2018-02-04T22:47:27.085Z,32.90
2018-02-04T22:49:55.230Z,38.63
2018-02-04T22:52:23.395Z,36.33
2018-02-04T22:54:51.548Z,37.57
2018-02-04T22:57:19.788Z,43.43
2018-02-04T22:59:47.970Z,41.87
2018-02-04T23:02:24.333Z,42.90
2018-02-04T23:14:14.096Z,38.57
2018-02-04T23:16:42.437Z,35.00
2018-02-04T23:19:12.096Z,32.87
2018-02-04T23:21:41.345Z,30.77
2018-02-04T23:24:13.127Z,36.97
2018-02-04T23:26:41.283Z,38.50
2018-02-04T23:29:10.212Z,37.47
2018-02-04T23:31:38.341Z,38.43
2018-02-04T23:34:06.508Z,41.53
2018-02-04T23:36:34.664Z,43.17
2018-02-04T23:39:05.810Z,35.30
2018-02-04T23:41:33.920Z,39.67
2018-02-04T23:44:02.872Z,40.30
2018-02-04T23:46:31.026Z,37.30
2018-02-04T23:48:59.210Z,36.03
2018-02-04T23:51:27.345Z,32.53
2018-02-04T23:53:58.317Z,37.10
2018-02-04T23:56:26.451Z,34.77
2018-02-04T23:58:54.601Z,36.73
